Little Wash, Pennsylvania
Current Conditions -  °F | °C
As of 7:56 AM on Friday 31 Oct 2014 (Local Time) from KCXY Reporting Station
Overcast Overcast  
Wind Chill: 44°   Ceiling: 5500
Heat Index: 47°   Visibility: 10mi
Dew Point: 37°   Wind: 6mph
Humidity: 68%   Direction: 100°E
Pressure: 30.01"   Gusts: NA
Location:  40.183°N, 77.4166°W
Report Text: KCXY 311156Z 10005KT 10SM OVC055 08/03 A3001 RMK AO2 SLP164 T00830028 10094 20078 58001
Loading
Personal Weather Stations






























Interactive Weather Map
Tropical Storm Tracking
New forecast layout! Learn more

10-Day Weather Forecast

Advertisements
Track Severe Weather on mobile